Time;durP1;ratioP1;P1;durP2;ratioP2;P2;SDS_P1;SDS_P2;PMS_P1;PMS_P2;Temp;Humidity;BMP_temperature;BMP_pressure;BME280_temperature;BME280_humidity;BME280_pressure;Samples;Min_cycle;Max_cycle;Signal;HPM_P1;HPM_P2
2021/07/17 00:01:07;;;;;;;10.10;9.07;;;;;;;;;;5008460;28;20277;-68
2021/07/17 00:03:32;;;;;;;158.00;31.55;;;;;;;;;;5011473;28;20105;-68
2021/07/17 00:05:57;;;;;;;9.15;8.25;;;;;;;;;;5010031;28;20129;-68
2021/07/17 00:08:22;;;;;;;10.17;8.03;;;;;;;;;;5008770;28;20076;-67
2021/07/17 00:10:48;;;;;;;8.52;7.72;;;;;;;;;;5008936;28;20364;-68
2021/07/17 00:13:14;;;;;;;8.73;8.13;;;;;;;;;;5009524;28;20030;-67
2021/07/17 00:15:39;;;;;;;11.57;10.68;;;;;;;;;;5011371;28;20020;-68
2021/07/17 00:18:05;;;;;;;10.55;9.65;;;;;;;;;;5009356;28;20037;-68
2021/07/17 00:20:30;;;;;;;9.10;8.20;;;;;;;;;;5008755;28;20037;-67
2021/07/17 00:22:55;;;;;;;8.60;7.95;;;;;;;;;;5009098;28;20034;-67
2021/07/17 00:25:21;;;;;;;9.25;8.45;;;;;;;;;;5009584;28;20113;-67
2021/07/17 00:27:47;;;;;;;10.13;9.23;;;;;;;;;;5011577;28;20069;-68
2021/07/17 00:30:12;;;;;;;10.45;9.55;;;;;;;;;;5007866;28;20407;-67
2021/07/17 00:32:38;;;;;;;18.48;16.88;;;;;;;;;;5008778;28;20124;-68
2021/07/17 00:35:04;;;;;;;9.20;8.50;;;;;;;;;;5009543;28;20117;-68
2021/07/17 00:37:30;;;;;;;10.20;9.45;;;;;;;;;;5008291;28;20038;-68
2021/07/17 00:39:55;;;;;;;12.82;11.75;;;;;;;;;;5009993;28;20083;-67
2021/07/17 00:42:20;;;;;;;11.40;10.50;;;;;;;;;;5011207;28;20496;-69
2021/07/17 00:44:45;;;;;;;10.95;10.10;;;;;;;;;;5010222;28;20269;-68
2021/07/17 00:47:13;;;;;;;10.25;9.55;;;;;;;;;;5009102;28;20049;-64
2021/07/17 00:49:38;;;;;;;10.75;9.75;;;;;;;;;;5008012;28;20440;-66
2021/07/17 00:52:04;;;;;;;14.43;13.00;;;;;;;;;;5008805;28;20014;-65
2021/07/17 00:54:30;;;;;;;11.30;10.20;;;;;;;;;;5010519;28;20299;-65
2021/07/17 00:56:57;;;;;;;10.50;9.45;;;;;;;;;;5008058;28;20101;-64
2021/07/17 00:59:24;;;;;;;12.00;10.43;;;;;;;;;;5009643;28;20042;-64
2021/07/17 01:01:52;;;;;;;11.85;10.82;;;;;;;;;;5008926;28;20041;-65
2021/07/17 01:04:18;;;;;;;12.00;11.00;;;;;;;;;;5008587;28;20018;-64
2021/07/17 01:06:44;;;;;;;14.85;13.50;;;;;;;;;;5009806;28;20105;-64
2021/07/17 01:09:09;;;;;;;17.80;16.08;;;;;;;;;;5009338;28;20072;-64
2021/07/17 01:11:34;;;;;;;10.02;9.32;;;;;;;;;;5009286;28;20030;-65
2021/07/17 01:14:00;;;;;;;19.92;18.02;;;;;;;;;;5008828;28;20041;-64
2021/07/17 01:16:26;;;;;;;11.55;10.52;;;;;;;;;;5008702;28;20144;-64
2021/07/17 01:18:51;;;;;;;11.90;10.68;;;;;;;;;;5009098;28;20034;-64
2021/07/17 01:21:17;;;;;;;10.67;9.73;;;;;;;;;;5010956;28;20049;-64
2021/07/17 01:23:43;;;;;;;8.23;7.63;;;;;;;;;;5008677;28;20261;-64
2021/07/17 01:26:08;;;;;;;12.75;11.55;;;;;;;;;;5007722;28;20041;-65
2021/07/17 01:28:33;;;;;;;9.63;8.95;;;;;;;;;;5008982;28;20103;-65
2021/07/17 01:30:59;;;;;;;11.73;10.82;;;;;;;;;;5006807;28;20107;-64
2021/07/17 01:33:24;;;;;;;8.98;8.27;;;;;;;;;;5025115;28;20108;-65
2021/07/17 01:35:52;;;;;;;10.55;9.65;;;;;;;;;;5007645;28;20033;-65
2021/07/17 01:38:17;;;;;;;10.15;9.35;;;;;;;;;;5008505;28;20214;-65
2021/07/17 01:40:45;;;;;;;11.37;10.33;;;;;;;;;;5008669;28;20503;-64
2021/07/17 01:43:11;;;;;;;9.57;8.98;;;;;;;;;;5023183;28;20276;-65
2021/07/17 01:45:38;;;;;;;12.40;11.32;;;;;;;;;;5010128;28;20017;-65
2021/07/17 01:48:04;;;;;;;11.52;10.63;;;;;;;;;;5008243;28;20182;-65
2021/07/17 01:50:30;;;;;;;15.90;14.40;;;;;;;;;;5008496;28;20113;-64
2021/07/17 01:52:56;;;;;;;11.45;10.52;;;;;;;;;;5006693;28;20022;-65
2021/07/17 01:55:21;;;;;;;10.68;9.80;;;;;;;;;;5006945;28;20032;-64
2021/07/17 01:57:47;;;;;;;8.77;8.07;;;;;;;;;;5010350;28;20093;-64
2021/07/17 02:00:12;;;;;;;8.73;7.93;;;;;;;;;;5008311;28;20443;-64
2021/07/17 02:02:41;;;;;;;9.45;8.73;;;;;;;;;;5007344;28;20049;-64
2021/07/17 02:05:07;;;;;;;9.05;8.32;;;;;;;;;;5011054;28;20029;-65
2021/07/17 02:07:32;;;;;;;11.85;10.95;;;;;;;;;;5012429;28;20402;-65
2021/07/17 02:09:58;;;;;;;8.15;7.45;;;;;;;;;;5012370;28;20434;-64
2021/07/17 02:12:23;;;;;;;7.40;6.90;;;;;;;;;;5012508;28;20429;-64
2021/07/17 02:14:49;;;;;;;8.48;7.63;;;;;;;;;;5012143;28;20511;-65
2021/07/17 02:17:14;;;;;;;9.23;8.10;;;;;;;;;;5010649;28;20451;-64
2021/07/17 02:19:40;;;;;;;10.57;9.57;;;;;;;;;;5011654;28;20057;-65
2021/07/17 02:22:05;;;;;;;8.18;7.47;;;;;;;;;;5011928;28;20091;-64
2021/07/17 02:24:30;;;;;;;11.32;10.23;;;;;;;;;;5012442;28;20025;-64
2021/07/17 02:26:55;;;;;;;10.82;9.82;;;;;;;;;;5011938;28;20049;-65
2021/07/17 02:29:21;;;;;;;9.40;8.63;;;;;;;;;;5012005;28;20037;-65
2021/07/17 02:31:46;;;;;;;9.30;8.57;;;;;;;;;;5011239;28;20033;-64
2021/07/17 02:34:12;;;;;;;8.75;8.15;;;;;;;;;;5011492;28;20045;-65
2021/07/17 02:36:37;;;;;;;9.35;8.65;;;;;;;;;;5013654;28;20018;-64
2021/07/17 02:39:03;;;;;;;9.38;8.73;;;;;;;;;;5011789;28;20041;-64
2021/07/17 02:41:28;;;;;;;9.30;8.52;;;;;;;;;;5010421;28;20117;-64
2021/07/17 02:43:55;;;;;;;9.18;8.48;;;;;;;;;;5011361;28;20484;-65
2021/07/17 02:46:20;;;;;;;11.63;10.77;;;;;;;;;;5011301;28;20038;-64
2021/07/17 02:48:45;;;;;;;10.13;9.32;;;;;;;;;;5013323;28;20112;-65
2021/07/17 02:51:11;;;;;;;10.20;9.27;;;;;;;;;;5011572;28;20037;-64
2021/07/17 02:53:36;;;;;;;10.90;9.82;;;;;;;;;;5010972;28;20343;-64
2021/07/17 02:56:01;;;;;;;11.00;9.90;;;;;;;;;;5011397;28;20064;-64
2021/07/17 02:58:26;;;;;;;12.02;10.93;;;;;;;;;;5011585;28;20468;-65
2021/07/17 03:00:55;;;;;;;10.38;9.68;;;;;;;;;;5010994;28;20034;-64
2021/07/17 03:03:21;;;;;;;12.98;11.82;;;;;;;;;;5012556;28;20014;-65
2021/07/17 03:05:46;;;;;;;12.30;11.40;;;;;;;;;;5011405;28;20038;-64
2021/07/17 03:08:19;;;;;;;12.50;11.40;;;;;;;;;;5011342;28;20698;-64
2021/07/17 03:10:44;;;;;;;11.85;10.95;;;;;;;;;;5011302;28;20037;-64
2021/07/17 03:13:10;;;;;;;13.57;12.38;;;;;;;;;;5010682;28;20034;-64
2021/07/17 03:15:35;;;;;;;14.52;13.23;;;;;;;;;;5011814;28;20044;-64
2021/07/17 03:18:00;;;;;;;20.77;18.20;;;;;;;;;;5010934;28;20065;-65
2021/07/17 03:20:26;;;;;;;14.50;13.20;;;;;;;;;;5011185;28;20045;-64
2021/07/17 03:22:51;;;;;;;20.17;18.30;;;;;;;;;;5009215;28;20184;-64
2021/07/17 03:25:16;;;;;;;17.93;16.40;;;;;;;;;;5010835;28;20027;-64
2021/07/17 03:27:41;;;;;;;15.43;14.13;;;;;;;;;;5012709;28;21101;-64
2021/07/17 03:30:07;;;;;;;21.93;19.83;;;;;;;;;;5011057;28;20754;-64
2021/07/17 03:32:33;;;;;;;16.92;15.35;;;;;;;;;;5008313;28;20320;-64
2021/07/17 03:34:58;;;;;;;17.38;15.75;;;;;;;;;;5010895;28;20128;-64
2021/07/17 03:37:23;;;;;;;14.25;13.15;;;;;;;;;;5010506;28;20515;-65
2021/07/17 03:39:49;;;;;;;15.20;13.82;;;;;;;;;;5012674;28;20022;-64
2021/07/17 03:42:14;;;;;;;13.65;12.65;;;;;;;;;;5010002;28;20038;-64
2021/07/17 03:44:39;;;;;;;14.48;13.38;;;;;;;;;;5010723;28;20039;-65
2021/07/17 03:47:04;;;;;;;12.67;11.67;;;;;;;;;;5010037;28;20041;-65
2021/07/17 03:49:30;;;;;;;11.30;10.40;;;;;;;;;;5010334;28;20257;-64
2021/07/17 03:51:55;;;;;;;11.55;10.50;;;;;;;;;;5008943;28;20014;-64
2021/07/17 03:54:20;;;;;;;11.10;10.10;;;;;;;;;;5011712;28;20026;-64
2021/07/17 03:56:45;;;;;;;11.70;10.87;;;;;;;;;;5008970;28;20038;-65
2021/07/17 03:59:10;;;;;;;11.23;10.13;;;;;;;;;;5010354;28;20300;-64
2021/07/17 04:01:36;;;;;;;11.75;10.75;;;;;;;;;;5008400;28;20033;-64
2021/07/17 04:04:01;;;;;;;11.05;10.07;;;;;;;;;;5009168;28;20062;-65
2021/07/17 04:06:26;;;;;;;11.48;10.68;;;;;;;;;;5011595;28;20134;-65
2021/07/17 04:08:51;;;;;;;10.52;9.73;;;;;;;;;;5009981;28;20034;-64
2021/07/17 04:11:16;;;;;;;11.27;10.23;;;;;;;;;;5009960;28;20121;-65
2021/07/17 04:13:42;;;;;;;11.23;10.23;;;;;;;;;;5009517;28;20057;-64
2021/07/17 04:16:07;;;;;;;11.02;10.10;;;;;;;;;;5009743;28;20352;-64
2021/07/17 04:18:32;;;;;;;9.73;8.80;;;;;;;;;;5012035;28;20112;-64
2021/07/17 04:20:57;;;;;;;11.47;10.47;;;;;;;;;;5009627;28;20504;-65
2021/07/17 04:23:23;;;;;;;11.00;10.10;;;;;;;;;;5009548;28;20276;-66
2021/07/17 04:25:48;;;;;;;10.73;9.73;;;;;;;;;;5009556;28;20377;-64
2021/07/17 04:28:13;;;;;;;12.55;11.20;;;;;;;;;;5009690;28;20404;-65
2021/07/17 04:30:38;;;;;;;13.07;11.77;;;;;;;;;;5026845;28;20104;-65
2021/07/17 04:33:03;;;;;;;14.20;13.05;;;;;;;;;;5008749;28;20706;-64
2021/07/17 04:35:29;;;;;;;13.52;12.40;;;;;;;;;;5008348;28;20030;-64
2021/07/17 04:37:54;;;;;;;14.77;13.48;;;;;;;;;;5009415;28;20100;-65
2021/07/17 04:40:19;;;;;;;16.83;15.10;;;;;;;;;;5009510;28;20073;-64
2021/07/17 04:42:44;;;;;;;18.87;14.93;;;;;;;;;;5011006;28;20356;-65
2021/07/17 04:45:10;;;;;;;18.58;16.75;;;;;;;;;;5009679;28;20276;-65
2021/07/17 04:47:36;;;;;;;17.70;15.82;;;;;;;;;;5009334;28;20050;-64
2021/07/17 04:50:02;;;;;;;19.58;17.60;;;;;;;;;;5009458;28;20022;-65
2021/07/17 04:52:28;;;;;;;19.42;17.48;;;;;;;;;;5008938;28;20033;-64
2021/07/17 04:54:53;;;;;;;20.92;19.13;;;;;;;;;;5024324;28;20075;-64
2021/07/17 04:57:19;;;;;;;24.63;20.40;;;;;;;;;;5011212;28;20029;-64
2021/07/17 04:59:44;;;;;;;20.27;18.30;;;;;;;;;;5009213;28;20265;-64
2021/07/17 05:02:09;;;;;;;22.70;20.53;;;;;;;;;;5008464;28;20416;-64
2021/07/17 05:04:34;;;;;;;22.97;20.67;;;;;;;;;;5008924;28;20312;-64
2021/07/17 05:06:59;;;;;;;22.92;20.52;;;;;;;;;;5024300;28;20649;-64
2021/07/17 05:09:25;;;;;;;28.00;20.48;;;;;;;;;;5011043;28;20509;-65
2021/07/17 05:11:50;;;;;;;23.00;19.87;;;;;;;;;;5008993;28;20539;-68
2021/07/17 05:14:15;;;;;;;24.25;21.75;;;;;;;;;;5008519;28;20274;-62
2021/07/17 05:16:41;;;;;;;23.67;21.30;;;;;;;;;;5008579;28;20048;-63
2021/07/17 05:19:06;;;;;;;28.27;23.75;;;;;;;;;;5008700;28;20046;-64
2021/07/17 05:21:32;;;;;;;32.80;24.40;;;;;;;;;;5010770;28;20029;-64
2021/07/17 05:23:57;;;;;;;32.05;22.63;;;;;;;;;;5008426;28;20608;-64
2021/07/17 05:26:22;;;;;;;27.35;22.73;;;;;;;;;;5023551;28;20057;-66
2021/07/17 05:28:47;;;;;;;30.30;24.80;;;;;;;;;;5008901;28;20068;-63
2021/07/17 05:31:12;;;;;;;30.97;24.53;;;;;;;;;;5008331;28;20746;-64
2021/07/17 05:33:38;;;;;;;32.22;25.55;;;;;;;;;;5009963;28;20265;-63
2021/07/17 05:36:03;;;;;;;40.67;26.23;;;;;;;;;;5008829;28;20042;-63
2021/07/17 05:38:29;;;;;;;33.97;26.67;;;;;;;;;;5007833;28;20042;-63
2021/07/17 05:40:54;;;;;;;40.22;28.42;;;;;;;;;;5008507;28;20502;-67
2021/07/17 05:43:19;;;;;;;33.60;25.43;;;;;;;;;;5008262;28;20476;-68
2021/07/17 05:45:44;;;;;;;35.63;27.10;;;;;;;;;;5011728;28;20268;-72
2021/07/17 05:48:09;;;;;;;38.67;27.92;;;;;;;;;;5008336;28;20046;-70
2021/07/17 05:50:35;;;;;;;34.87;27.57;;;;;;;;;;5006940;28;20037;-70
2021/07/17 05:53:09;;;;;;;39.13;28.42;;;;;;;;;;5008241;28;20269;-67
2021/07/17 05:55:35;;;;;;;39.97;29.77;;;;;;;;;;5008488;28;20111;-67
2021/07/17 05:58:00;;;;;;;36.63;26.85;;;;;;;;;;5008562;28;20515;-67
2021/07/17 06:00:26;;;;;;;35.78;27.45;;;;;;;;;;5010451;28;20599;-68
2021/07/17 06:02:51;;;;;;;48.75;32.22;;;;;;;;;;5007299;28;20133;-67
2021/07/17 06:05:16;;;;;;;43.67;30.97;;;;;;;;;;5008348;28;20034;-66
2021/07/17 06:07:41;;;;;;;48.67;31.35;;;;;;;;;;5008344;28;20778;-69
2021/07/17 06:10:07;;;;;;;40.30;30.60;;;;;;;;;;5008451;28;20018;-66
2021/07/17 06:12:32;;;;;;;41.42;30.42;;;;;;;;;;5009651;28;20028;-69
2021/07/17 06:14:57;;;;;;;41.03;30.50;;;;;;;;;;5008405;28;20117;-72
2021/07/17 06:17:23;;;;;;;45.47;32.20;;;;;;;;;;5007817;28;20045;-67
2021/07/17 06:19:48;;;;;;;53.03;33.67;;;;;;;;;;5008300;28;20300;-67
2021/07/17 06:22:14;;;;;;;52.50;35.80;;;;;;;;;;5023013;28;20030;-66
2021/07/17 06:24:39;;;;;;;51.80;33.25;;;;;;;;;;5010393;28;20487;-65
2021/07/17 06:27:05;;;;;;;45.63;33.90;;;;;;;;;;5008133;28;20073;-65
2021/07/17 06:29:30;;;;;;;52.75;35.65;;;;;;;;;;5008088;28;20046;-64
2021/07/17 06:31:55;;;;;;;47.40;34.40;;;;;;;;;;5022828;28;20038;-64
2021/07/17 06:34:21;;;;;;;54.03;34.83;;;;;;;;;;5007384;28;20061;-65
2021/07/17 06:36:46;;;;;;;47.65;35.00;;;;;;;;;;5009785;28;20101;-65
2021/07/17 06:39:11;;;;;;;52.33;35.80;;;;;;;;;;5008261;28;20041;-81
2021/07/17 06:41:40;;;;;;;46.45;36.35;;;;;;;;;;5023121;28;20553;-70
2021/07/17 06:44:05;;;;;;;53.90;36.67;;;;;;;;;;5007443;28;20083;-71
2021/07/17 06:46:30;;;;;;;47.20;34.13;;;;;;;;;;5008060;28;20151;-70
2021/07/17 06:48:55;;;;;;;50.45;35.60;;;;;;;;;;5007819;28;20018;-70
2021/07/17 06:51:21;;;;;;;49.85;34.95;;;;;;;;;;5011308;28;20022;-69
2021/07/17 06:53:46;;;;;;;51.72;36.42;;;;;;;;;;5011134;28;20080;-71
2021/07/17 06:56:13;;;;;;;48.80;34.53;;;;;;;;;;5010451;28;20062;-70
2021/07/17 06:58:38;;;;;;;48.33;34.28;;;;;;;;;;5011521;28;20266;-68
2021/07/17 07:01:03;;;;;;;55.33;36.25;;;;;;;;;;5011312;28;20212;-79
2021/07/17 07:03:29;;;;;;;46.67;34.40;;;;;;;;;;5014272;28;20411;-68
2021/07/17 07:05:54;;;;;;;48.67;33.63;;;;;;;;;;5011433;28;20038;-67
2021/07/17 07:08:20;;;;;;;47.10;32.90;;;;;;;;;;5011267;28;20328;-67
2021/07/17 07:10:45;;;;;;;48.40;35.47;;;;;;;;;;5011293;28;20034;-67
2021/07/17 07:13:11;;;;;;;49.97;34.67;;;;;;;;;;5010852;28;20021;-68
2021/07/17 07:15:36;;;;;;;58.10;35.55;;;;;;;;;;5013408;28;20800;-67
2021/07/17 07:18:02;;;;;;;45.70;32.72;;;;;;;;;;5010683;28;20034;-67
2021/07/17 07:20:27;;;;;;;45.60;33.53;;;;;;;;;;5011004;28;20062;-67
2021/07/17 07:22:52;;;;;;;45.67;32.90;;;;;;;;;;5010698;28;20038;-67
2021/07/17 07:25:18;;;;;;;44.60;32.37;;;;;;;;;;5010782;28;20276;-67
2021/07/17 07:27:43;;;;;;;44.47;32.60;;;;;;;;;;5012856;28;20292;-68
2021/07/17 07:30:08;;;;;;;39.75;31.05;;;;;;;;;;5011096;28;20030;-68
2021/07/17 07:32:33;;;;;;;42.63;30.92;;;;;;;;;;5009931;28;20052;-65
2021/07/17 07:34:59;;;;;;;41.53;30.73;;;;;;;;;;5009310;28;20030;-68
2021/07/17 07:37:25;;;;;;;39.15;29.63;;;;;;;;;;5009384;28;20149;-67
2021/07/17 07:39:53;;;;;;;39.20;29.40;;;;;;;;;;5013171;28;20025;-68
2021/07/17 07:42:18;;;;;;;39.13;28.88;;;;;;;;;;5010698;28;20038;-66
2021/07/17 07:44:43;;;;;;;37.70;29.15;;;;;;;;;;5025712;28;20037;-67
2021/07/17 07:47:08;;;;;;;35.63;29.45;;;;;;;;;;5008749;28;20516;-68
2021/07/17 07:49:33;;;;;;;39.43;30.60;;;;;;;;;;5010186;28;20036;-68
2021/07/17 07:51:59;;;;;;;33.28;28.52;;;;;;;;;;5008977;28;20253;-67
2021/07/17 07:54:24;;;;;;;34.38;27.50;;;;;;;;;;5011960;28;20101;-67
2021/07/17 07:56:49;;;;;;;35.20;28.17;;;;;;;;;;5010308;28;20145;-67
2021/07/17 07:59:14;;;;;;;28.20;25.30;;;;;;;;;;5009164;28;20038;-67
2021/07/17 08:01:40;;;;;;;36.20;27.02;;;;;;;;;;5009647;28;20319;-67
2021/07/17 08:04:05;;;;;;;31.90;27.80;;;;;;;;;;5009381;28;20025;-67
2021/07/17 08:06:30;;;;;;;38.60;29.20;;;;;;;;;;5012240;28;20256;-66
2021/07/17 08:08:55;;;;;;;35.28;27.23;;;;;;;;;;5010253;28;20889;-67
2021/07/17 08:11:20;;;;;;;37.73;27.30;;;;;;;;;;5010138;28;20096;-66
2021/07/17 08:13:46;;;;;;;32.88;28.13;;;;;;;;;;5009674;28;20265;-69
2021/07/17 08:16:11;;;;;;;30.67;25.90;;;;;;;;;;5010369;28;20022;-69
2021/07/17 08:18:36;;;;;;;32.58;26.77;;;;;;;;;;5011833;28;20670;-68
2021/07/17 08:21:02;;;;;;;37.22;27.08;;;;;;;;;;5009881;28;20038;-69
2021/07/17 08:23:27;;;;;;;37.22;27.55;;;;;;;;;;5024471;28;20130;-68
2021/07/17 08:25:52;;;;;;;35.08;26.58;;;;;;;;;;5009894;28;20037;-68
2021/07/17 08:28:18;;;;;;;31.33;27.23;;;;;;;;;;5009714;28;20029;-71
2021/07/17 08:30:43;;;;;;;33.75;27.63;;;;;;;;;;5011978;28;20265;-67
2021/07/17 08:33:08;;;;;;;35.30;26.98;;;;;;;;;;5009109;28;20621;-69
2021/07/17 08:35:33;;;;;;;39.13;30.17;;;;;;;;;;5009470;28;20046;-68
2021/07/17 08:37:59;;;;;;;36.17;26.80;;;;;;;;;;5009226;28;20635;-74
2021/07/17 08:40:24;;;;;;;32.60;27.52;;;;;;;;;;5009861;28;20038;-77
2021/07/17 08:42:53;;;;;;;32.63;27.70;;;;;;;;;;5011646;28;20021;-67
2021/07/17 08:45:19;;;;;;;34.88;27.60;;;;;;;;;;5023590;28;20064;-65
2021/07/17 08:47:46;;;;;;;34.88;27.73;;;;;;;;;;5008865;28;20054;-65
2021/07/17 08:50:13;;;;;;;31.08;26.70;;;;;;;;;;5009437;28;20112;-65
2021/07/17 08:52:38;;;;;;;33.13;27.30;;;;;;;;;;5008720;28;20388;-64
2021/07/17 08:55:04;;;;;;;34.27;28.63;;;;;;;;;;5009448;28;20028;-64
2021/07/17 08:57:35;;;;;;;33.40;26.50;;;;;;;;;;5011050;28;20364;-63
2021/07/17 09:00:06;;;;;;;33.03;27.40;;;;;;;;;;5009746;28;20061;-65
2021/07/17 09:02:35;;;;;;;30.67;24.90;;;;;;;;;;5009209;28;20034;-68
2021/07/17 09:05:01;;;;;;;30.67;25.52;;;;;;;;;;5008984;28;20530;-64
2021/07/17 09:07:26;;;;;;;27.77;24.23;;;;;;;;;;5009438;28;20030;-67
2021/07/17 09:09:51;;;;;;;34.78;25.27;;;;;;;;;;5011023;28;20265;-66
2021/07/17 09:12:20;;;;;;;31.48;25.48;;;;;;;;;;5008801;28;20037;-65
2021/07/17 09:14:45;;;;;;;29.63;24.50;;;;;;;;;;5008234;28;20463;-66
2021/07/17 09:17:20;;;;;;;25.80;23.10;;;;;;;;;;5007850;28;20114;-70
2021/07/17 09:19:53;;;;;;;27.13;23.17;;;;;;;;;;5005591;28;20088;-64
2021/07/17 09:22:34;;;;;;;27.58;21.83;;;;;;;;;;5008165;28;20034;-62
2021/07/17 09:25:06;;;;;;;23.25;20.70;;;;;;;;;;5008741;28;20014;-62
2021/07/17 09:27:31;;;;;;;23.10;20.75;;;;;;;;;;5010335;28;20056;-64
2021/07/17 09:29:56;;;;;;;24.58;20.73;;;;;;;;;;5008506;28;20034;-70
2021/07/17 09:32:21;;;;;;;22.57;20.27;;;;;;;;;;5007815;28;20060;-67
2021/07/17 09:34:47;;;;;;;24.13;21.63;;;;;;;;;;5008230;28;20539;-68
2021/07/17 09:37:12;;;;;;;24.33;21.83;;;;;;;;;;5008041;28;20675;-69
2021/07/17 09:39:44;;;;;;;24.97;22.33;;;;;;;;;;5010247;28;20261;-69
2021/07/17 09:42:11;;;;;;;26.33;21.83;;;;;;;;;;5008002;28;20277;-67
2021/07/17 09:44:37;;;;;;;25.00;20.77;;;;;;;;;;5008353;28;20026;-73
2021/07/17 09:47:13;;;;;;;23.80;21.42;;;;;;;;;;5008275;28;20060;-62
2021/07/17 09:49:38;;;;;;;23.90;21.23;;;;;;;;;;5007473;28;20042;-63
2021/07/17 09:52:10;;;;;;;25.20;19.43;;;;;;;;;;5006830;28;20524;-63
2021/07/17 09:54:36;;;;;;;21.88;19.60;;;;;;;;;;5009766;28;20715;-64
2021/07/17 09:57:01;;;;;;;20.75;18.55;;;;;;;;;;5008355;28;20121;-63
2021/07/17 09:59:27;;;;;;;20.60;18.33;;;;;;;;;;5007782;28;20045;-63
2021/07/17 10:01:52;;;;;;;20.83;18.77;;;;;;;;;;5008031;28;20026;-63
2021/07/17 10:04:17;;;;;;;21.17;19.23;;;;;;;;;;5007082;28;20042;-63
2021/07/17 10:06:42;;;;;;;22.10;19.75;;;;;;;;;;5010191;28;20276;-63
2021/07/17 10:09:14;;;;;;;24.95;19.70;;;;;;;;;;5008084;28;20454;-66
2021/07/17 10:11:40;;;;;;;21.48;19.33;;;;;;;;;;5007976;28;20061;-65
2021/07/17 10:14:18;;;;;;;22.80;18.70;;;;;;;;;;5007404;28;20535;-64
2021/07/17 10:16:43;;;;;;;23.65;20.23;;;;;;;;;;5007767;28;20083;-67
2021/07/17 10:19:09;;;;;;;20.85;18.75;;;;;;;;;;5007393;28;20018;-68
2021/07/17 10:21:34;;;;;;;23.15;20.70;;;;;;;;;;5009752;28;20056;-68
2021/07/17 10:24:00;;;;;;;24.63;21.67;;;;;;;;;;5007156;28;20092;-62
2021/07/17 10:26:26;;;;;;;30.17;22.92;;;;;;;;;;5010570;28;20037;-67
2021/07/17 10:28:52;;;;;;;25.02;21.85;;;;;;;;;;5011210;28;20129;-60
2021/07/17 10:31:17;;;;;;;72.25;39.28;;;;;;;;;;5011391;28;20482;-62
2021/07/17 10:33:43;;;;;;;98.32;46.97;;;;;;;;;;5012623;28;20022;-63
2021/07/17 10:36:09;;;;;;;115.67;52.90;;;;;;;;;;5011153;28;20117;-64
2021/07/17 10:38:35;;;;;;;102.22;53.15;;;;;;;;;;5010972;28;20379;-62
2021/07/17 10:41:01;;;;;;;117.43;56.00;;;;;;;;;;5009757;28;20057;-63
2021/07/17 10:43:27;;;;;;;98.45;51.47;;;;;;;;;;5010686;28;20471;-66
2021/07/17 10:45:52;;;;;;;116.18;53.42;;;;;;;;;;5013215;28;20487;-65
2021/07/17 10:48:24;;;;;;;107.03;52.58;;;;;;;;;;5010645;28;20038;-66
2021/07/17 10:50:49;;;;;;;108.13;54.10;;;;;;;;;;5011221;28;20130;-66
2021/07/17 10:53:33;;;;;;;117.40;57.35;;;;;;;;;;5010658;28;20042;-64
2021/07/17 10:56:18;;;;;;;122.07;58.22;;;;;;;;;;5010951;28;20068;-61
2021/07/17 10:58:43;;;;;;;93.25;46.95;;;;;;;;;;5011014;28;20057;-69
2021/07/17 11:01:09;;;;;;;111.07;54.13;;;;;;;;;;5009830;28;20053;-65
2021/07/17 11:03:34;;;;;;;97.67;48.63;;;;;;;;;;5010713;28;20305;-65
2021/07/17 11:06:19;;;;;;;108.88;53.85;;;;;;;;;;5010909;28;20833;-63
2021/07/17 11:08:44;;;;;;;101.60;52.50;;;;;;;;;;5006816;28;20041;-71
2021/07/17 11:11:25;;;;;;;115.10;55.13;;;;;;;;;;5009544;28;20034;-65
2021/07/17 11:13:50;;;;;;;114.07;53.97;;;;;;;;;;5009369;28;20084;-65
2021/07/17 11:16:36;;;;;;;111.63;50.55;;;;;;;;;;5010725;28;20050;-64
2021/07/17 11:19:24;;;;;;;89.55;48.65;;;;;;;;;;5010118;28;20093;-64
2021/07/17 11:21:49;;;;;;;103.32;52.00;;;;;;;;;;5006884;28;20121;-67
2021/07/17 11:24:15;;;;;;;102.13;50.42;;;;;;;;;;5010508;28;20034;-64
2021/07/17 11:26:40;;;;;;;102.57;49.13;;;;;;;;;;5010181;28;20396;-64
2021/07/17 11:29:12;;;;;;;102.90;51.25;;;;;;;;;;5011014;28;20049;-64
2021/07/17 11:31:43;;;;;;;105.93;50.83;;;;;;;;;;5010868;28;20504;-64
2021/07/17 11:34:16;;;;;;;95.22;48.17;;;;;;;;;;5009955;28;20025;-64
2021/07/17 11:36:43;;;;;;;102.82;49.67;;;;;;;;;;5011470;28;20013;-64
2021/07/17 11:39:09;;;;;;;91.97;46.95;;;;;;;;;;5010511;28;20574;-70
2021/07/17 11:41:35;;;;;;;95.38;47.47;;;;;;;;;;5025816;28;20130;-67
2021/07/17 11:44:00;;;;;;;93.68;48.47;;;;;;;;;;5009768;28;20129;-72
2021/07/17 11:46:25;;;;;;;87.10;45.30;;;;;;;;;;5010513;28;20439;-66
2021/07/17 11:49:04;;;;;;;85.68;43.22;;;;;;;;;;5011890;28;20033;-64
2021/07/17 11:51:30;;;;;;;81.80;43.38;;;;;;;;;;5009490;28;20030;-64
2021/07/17 11:53:56;;;;;;;77.18;42.60;;;;;;;;;;5009870;28;20625;-64
2021/07/17 11:56:21;;;;;;;81.25;44.42;;;;;;;;;;5009750;28;20519;-65
2021/07/17 11:58:46;;;;;;;87.23;44.63;;;;;;;;;;5010056;28;20026;-63
2021/07/17 12:01:14;;;;;;;57.90;36.40;;;;;;;;;;5009754;28;20264;-64
2021/07/17 12:03:41;;;;;;;67.65;39.55;;;;;;;;;;5011227;28;20021;-63
2021/07/17 12:06:06;;;;;;;56.83;36.92;;;;;;;;;;5009732;28;20427;-64
2021/07/17 12:08:31;;;;;;;47.60;33.00;;;;;;;;;;5009790;28;20046;-64
2021/07/17 12:10:56;;;;;;;35.67;27.37;;;;;;;;;;5010248;28;20033;-64
2021/07/17 12:13:22;;;;;;;33.45;25.75;;;;;;;;;;5024423;28;20342;-64
2021/07/17 12:15:47;;;;;;;33.58;24.20;;;;;;;;;;5011874;28;20057;-64
2021/07/17 12:18:13;;;;;;;38.13;27.23;;;;;;;;;;5010062;28;20037;-64
2021/07/17 12:20:42;;;;;;;33.05;26.15;;;;;;;;;;5009897;28;20037;-64
2021/07/17 12:23:14;;;;;;;35.63;27.35;;;;;;;;;;5009429;28;20151;-64
2021/07/17 12:25:41;;;;;;;35.15;25.75;;;;;;;;;;5009809;28;20109;-65
2021/07/17 12:28:08;;;;;;;34.85;26.85;;;;;;;;;;5024686;28;20512;-64
2021/07/17 12:30:34;;;;;;;39.28;26.23;;;;;;;;;;5011296;28;20014;-66
2021/07/17 12:33:09;;;;;;;34.33;23.73;;;;;;;;;;5008844;28;20165;-67
2021/07/17 12:35:34;;;;;;;31.50;23.50;;;;;;;;;;5004524;28;20272;-69
2021/07/17 12:38:12;;;;;;;26.25;20.67;;;;;;;;;;5009255;28;20058;-66
2021/07/17 12:40:45;;;;;;;25.05;21.52;;;;;;;;;;5007751;28;20030;-68
2021/07/17 12:43:10;;;;;;;24.75;20.50;;;;;;;;;;5009284;28;20375;-67
2021/07/17 12:45:36;;;;;;;22.50;20.07;;;;;;;;;;5011272;28;20085;-66
2021/07/17 12:48:02;;;;;;;26.13;20.77;;;;;;;;;;5009293;28;20308;-67
2021/07/17 12:50:28;;;;;;;25.05;19.75;;;;;;;;;;5009030;28;20356;-68
2021/07/17 12:53:12;;;;;;;23.53;20.50;;;;;;;;;;5008790;28;20120;-67
2021/07/17 12:55:41;;;;;;;27.25;20.45;;;;;;;;;;5008906;28;20796;-67
2021/07/17 12:58:07;;;;;;;27.42;19.20;;;;;;;;;;5009301;28;20022;-67
2021/07/17 13:00:32;;;;;;;24.83;20.60;;;;;;;;;;5010940;28;20036;-67
2021/07/17 13:02:57;;;;;;;21.10;18.90;;;;;;;;;;5008345;28;20030;-66
2021/07/17 13:05:42;;;;;;;24.98;19.13;;;;;;;;;;5007281;28;20052;-66
2021/07/17 13:08:07;;;;;;;24.48;18.75;;;;;;;;;;5008804;28;20124;-66
2021/07/17 13:10:35;;;;;;;19.43;17.57;;;;;;;;;;5008877;28;20120;-66
2021/07/17 13:13:07;;;;;;;19.73;17.98;;;;;;;;;;5008420;28;20257;-65
2021/07/17 13:15:33;;;;;;;20.25;18.08;;;;;;;;;;5010520;28;20032;-66
2021/07/17 13:17:58;;;;;;;19.73;17.75;;;;;;;;;;5008614;28;20029;-65
2021/07/17 13:20:23;;;;;;;22.90;18.10;;;;;;;;;;5008242;28;20029;-68
2021/07/17 13:22:49;;;;;;;17.60;15.88;;;;;;;;;;5006776;28;20396;-69
2021/07/17 13:25:18;;;;;;;18.52;16.50;;;;;;;;;;5008619;28;20018;-68
2021/07/17 13:27:43;;;;;;;19.02;15.63;;;;;;;;;;5010454;28;20116;-69
2021/07/17 13:30:09;;;;;;;16.92;15.18;;;;;;;;;;5008618;28;20121;-68
2021/07/17 13:32:37;;;;;;;17.50;15.85;;;;;;;;;;5007116;28;20104;-68
2021/07/17 13:35:15;;;;;;;16.80;15.18;;;;;;;;;;5008431;28;20033;-68
2021/07/17 13:37:42;;;;;;;20.77;15.52;;;;;;;;;;5008573;28;20030;-68
2021/07/17 13:40:11;;;;;;;17.70;14.15;;;;;;;;;;5007209;28;20081;-67
2021/07/17 13:42:36;;;;;;;16.83;14.20;;;;;;;;;;5010090;28;20488;-67
2021/07/17 13:45:13;;;;;;;16.00;14.33;;;;;;;;;;5008854;28;20133;-68
2021/07/17 13:47:38;;;;;;;15.70;14.18;;;;;;;;;;5008321;28;20365;-68
2021/07/17 13:50:04;;;;;;;15.63;13.45;;;;;;;;;;5007937;28;20120;-66
2021/07/17 13:52:36;;;;;;;14.90;13.50;;;;;;;;;;5022796;28;20042;-68
2021/07/17 13:55:11;;;;;;;14.23;12.93;;;;;;;;;;5008355;28;20028;-68
2021/07/17 13:57:40;;;;;;;12.45;11.35;;;;;;;;;;5025596;28;20021;-67
2021/07/17 14:00:18;;;;;;;12.88;11.82;;;;;;;;;;5009272;28;20061;-66
2021/07/17 14:02:43;;;;;;;12.63;11.48;;;;;;;;;;5011439;28;20065;-66
2021/07/17 14:05:10;;;;;;;13.00;11.70;;;;;;;;;;5010104;28;20084;-66
2021/07/17 14:07:36;;;;;;;13.00;11.88;;;;;;;;;;5027224;28;20092;-65
2021/07/17 14:10:02;;;;;;;13.63;12.23;;;;;;;;;;5027049;28;20026;-78
2021/07/17 14:12:28;;;;;;;13.30;11.98;;;;;;;;;;5013539;28;20064;-68
2021/07/17 14:14:54;;;;;;;14.88;11.63;;;;;;;;;;5012254;28;20677;-65